• Join FlightAware (Why Join?)
  • Login
  • US Flag 
12:07AM EDT


 

Airport Tracker/Info


-or-


 

Live Flight TrackerFlight Track Log ✈ N15FS ✈ 20-Jun-2013 ✈ C25 - KFNL

Flight Track Log - Related Links

Times and Time Zones

All times are in EDT time to prevent confusion due to time zone crossing. See the N15FS flight status page for this flight to view local times or setup timezone preferences in your user account.

Time Position Orientation Groundspeed Altitude Reporting Facility
EDT Latitude Longitude Course Direction KTS MPH feet Rate Location/Type
06:25PM 42.7139 -92.6622 262° West 134 154 3,000  Level Minneapolis Center
06:26PM 42.7078 -92.7128 261° West 136 157 3,300 240 Climbing Minneapolis Center
06:27PM 42.6992 -92.7639 257° West 138 159 3,600 240 Climbing Minneapolis Center
06:28PM 42.6922 -92.8139 259° West 138 159 3,900 300 Climbing Minneapolis Center
06:29PM 42.6847 -92.8736 260° West 136 157 4,300 300 Climbing Minneapolis Center
06:30PM 42.6792 -92.9242 262° West 136 157 4,600 240 Climbing Minneapolis Center
06:31PM 42.7074 -92.7597 262° West  Level FlightAware Approximate
06:32PM 42.6769 -92.9756 267° West 137 158 4,900  Level Minneapolis Center
06:33PM 42.6717 -93.0261 262° West 137 158 5,200 240 Climbing Minneapolis Center
06:34PM 42.6594 -93.0761 252° West 138 159 5,400 300 Climbing Minneapolis Center
06:35PM 42.6531 -93.1375 262° West 138 159 5,900 240 Climbing Minneapolis Center
06:36PM 42.6481 -93.1883 262° West 138 159 6,000  Climbing Minneapolis Center
06:37PM 42.6400 -93.2369 257° West 135 155 6,000  Level Minneapolis Center
06:38PM 42.6311 -93.2889 257° West 138 159 6,000  Level Minneapolis Center
06:39PM 42.6231 -93.3531 260° West 142 163 6,000  Level Minneapolis Center
06:40PM 42.6181 -93.4061 263° West 143 165 6,100  Climbing Minneapolis Center
06:41PM 42.6108 -93.4592 260° West 144 166 6,000  Descending Minneapolis Center
06:42PM 42.6042 -93.5108 260° West 143 165 6,100  Climbing Minneapolis Center
06:43PM 42.5972 -93.5608 259° West 140 161 6,000 -60 Descending Minneapolis Center
06:44PM 42.5897 -93.6217 261° West 138 159 6,000  Level Minneapolis Center
06:45PM 42.5831 -93.6731 260° West 139 160 6,000  Level Minneapolis Center
06:46PM 42.5736 -93.7244 256° West 140 161 6,100  Climbing Minneapolis Center
06:47PM 42.5661 -93.7761 259° West 140 161 6,000 -60 Descending Minneapolis Center
06:48PM 42.5597 -93.8369 262° West 139 160 6,000  Level Minneapolis Center
06:50PM 42.5511 -93.9069 261° West 137 158 6,000  Level Minneapolis Center
06:51PM 42.5439 -93.9514 258° West 137 158 6,100  Climbing Minneapolis Center
06:53PM 42.5270 -94.0496 265° West  Level FlightAware Approximate
07:00PM 42.5024 -94.4220 265° West  Level FlightAware Approximate
07:01PM 42.4989 -94.4752 265° West  Level FlightAware Approximate
07:02PM 42.4952 -94.5283 265° West  Level FlightAware Approximate
07:03PM 42.4916 -94.5815 265° West  Level FlightAware Approximate
07:04PM 42.4879 -94.6347 265° West  Level FlightAware Approximate
07:04PM 42.4492 -94.6364 264° West 121 139 6,000  Level Minneapolis Center
07:05PM 42.4842 -94.6878 265° West  Level FlightAware Approximate
07:05PM 42.4444 -94.6908 263° West 144 166 6,100  Level Minneapolis Center
07:06PM 42.4801 -94.7409 264° West  Level FlightAware Approximate
07:06PM 42.4350 -94.7514 258° West 140 161 6,100  Level Minneapolis Center
07:07PM 42.4759 -94.7940 264° West  Level FlightAware Approximate
07:07PM 42.4308 -94.8092 264° West 145 167 6,100  Level Minneapolis Center
07:08PM 42.4717 -94.8471 264° West  Level FlightAware Approximate
07:08PM 42.4236 -94.8583 259° West 142 163 6,100  Level Minneapolis Center
07:09PM 42.4675 -94.9002 264° West  Level FlightAware Approximate
07:09PM 42.4125 -94.9153 255° West 136 157 6,100  Level Minneapolis Center
07:10PM 42.4047 -94.9683 259° West 138 159 6,000 -60 Descending Minneapolis Center
07:11PM 42.3969 -95.0183 258° West 138 159 6,000  Level Minneapolis Center
07:12PM 42.3875 -95.0792 258° West 138 159 6,000  Level Minneapolis Center
07:13PM 42.3803 -95.1289 259° West 137 158 6,000  Level Minneapolis Center
07:14PM 42.3728 -95.1811 259° West 138 159 6,000  Level Minneapolis Center
07:16PM 42.3656 -95.2347 260° West 141 162 6,000  Level Minneapolis Center
07:17PM 42.3569 -95.2992 260° West 143 165 6,000  Level Minneapolis Center
07:18PM 42.3489 -95.3478 257° West 140 161 6,000  Level Minneapolis Center
07:19PM 42.3394 -95.4106 259° West 140 161 6,000  Level Minneapolis Center
07:20PM 42.3314 -95.4622 258° West 140 161 6,000  Level Minneapolis Center
07:21PM 42.3242 -95.5139 259° West 140 161 6,000 60 Level Minneapolis Center
07:22PM 42.3167 -95.5642 259° West 139 160 6,200 240 Climbing Minneapolis Center
07:23PM 42.3075 -95.6197 257° West 135 155 6,600 360 Climbing Minneapolis Center
07:24PM 42.3006 -95.6642 258° West 128 147 7,000 360 Climbing Minneapolis Center
07:25PM 42.2933 -95.7161 259° West 121 139 7,400 240 Climbing Minneapolis Center
07:26PM 42.2864 -95.7561 257° West 113 130 7,500 60 Climbing Minneapolis Center
07:27PM 42.2789 -95.8036 258° West 121 139 7,600 60 Climbing Minneapolis Center
07:28PM 42.2731 -95.8486 260° West 124 143 7,700 120 Climbing Minneapolis Center
07:29PM 42.2669 -95.8933 260° West 122 140 7,900 120 Climbing Minneapolis Center
07:30PM 42.2581 -95.9442 257° West 118 136 8,100  Climbing Minneapolis Center
07:32PM 42.2478 -96.0061 257° West 132 152 8,000  Descending Minneapolis Center
07:33PM 42.2400 -96.0558 258° West 137 158 8,100  Climbing Minneapolis Center
07:34PM 42.2322 -96.1094 259° West 140 161 8,000 -60 Descending Minneapolis Center
07:35PM 42.2239 -96.1661 259° West 134 154 8,000  Level Minneapolis Center
07:36PM 42.2164 -96.2156 258° West 133 153 8,100  Climbing Minneapolis Center
07:37PM 42.2061 -96.2761 257° West 137 158 8,000 -60 Descending Minneapolis Center
07:38PM 42.1994 -96.3250 260° West 135 155 8,000  Level Minneapolis Center
07:39PM 42.1911 -96.3744 257° West 135 155 8,100  Climbing Minneapolis Center
07:40PM 42.1833 -96.4242 258° West 135 155 8,000  Descending Minneapolis Center
07:41PM 42.1758 -96.4711 258° West 134 154 8,100  Climbing Minneapolis Center
07:42PM 42.1661 -96.5278 257° West 131 151 8,100 -60 Level Minneapolis Center
07:43PM 42.1575 -96.5872 259° West 132 152 8,000 -60 Descending Minneapolis Center
07:44PM 42.1497 -96.6364 258° West 134 154 8,000  Level Minneapolis Center
07:45PM 42.1422 -96.6850 258° West 133 153 8,000  Level Minneapolis Center
07:46PM 42.1342 -96.7328 257° West 133 153 8,000  Level Minneapolis Center
07:47PM 42.1264 -96.7806 258° West 132 152 8,100  Climbing Minneapolis Center
07:48PM 42.1169 -96.8317 256° West 134 154 8,000 -60 Descending Minneapolis Center
07:50PM 42.1072 -96.8925 258° West 138 159 8,000  Level Minneapolis Center
07:51PM 42.1022 -96.9286 259° West 134 154 8,000  Level Minneapolis Center
07:52PM 42.0925 -96.9861 257° West 131 151 8,000  Level Minneapolis Center
07:53PM 42.0853 -97.0347 259° West 132 152 8,000  Level Minneapolis Center
07:54PM 42.0769 -97.0836 257° West 133 153 8,000  Level Minneapolis Center
07:55PM 42.0697 -97.1231 256° West 133 153 8,000  Level Minneapolis Center
07:56PM 42.0589 -97.1922 258° West 135 155 8,000  Level Minneapolis Center
07:57PM 42.0497 -97.2403 256° West 134 154 8,000  Level Minneapolis Center
07:58PM 42.0408 -97.2897 256° West 135 155 8,000  Level Minneapolis Center
07:59PM 42.0328 -97.3381 257° West 134 154 8,100  Climbing Minneapolis Center
08:00PM 42.0225 -97.4061 259° West 134 154 8,000 -60 Descending Minneapolis Center
08:01PM 42.0133 -97.4542 256° West 133 153 8,000  Level Minneapolis Center
08:02PM 42.0058 -97.5042 259° West 135 155 8,000  Level Minneapolis Center
08:03PM 41.9972 -97.5539 257° West 137 158 8,000  Level Minneapolis Center
08:04PM 41.9889 -97.6042 257° West 138 159 8,100  Climbing Minneapolis Center
08:05PM 41.9783 -97.6661 257° West 140 161 8,000 -60 Descending Minneapolis Center
08:06PM 41.9689 -97.7175 256° West 141 162 8,000  Level Minneapolis Center
08:07PM 41.9608 -97.7706 258° West 145 167 8,000  Level Minneapolis Center
08:09PM 41.9514 -97.8217 256° West 142 163 8,000  Level Minneapolis Center
08:10PM 41.9408 -97.8850 257° West 143 165 8,100  Climbing Minneapolis Center
08:11PM 41.9306 -97.9378 255° West 144 166 8,000 -60 Descending Minneapolis Center
08:12PM 41.9183 -98.0103 257° West 144 166 8,000  Level Minneapolis Center
08:13PM 41.9083 -98.0617 255° West 143 165 8,000  Level Minneapolis Center
08:14PM 41.9025 -98.1025 259° West 140 161 8,000  Level Minneapolis Center
08:15PM 41.8917 -98.1631 257° West 138 159 8,000  Level Minneapolis Center
08:16PM 41.8828 -98.2144 257° West 141 162 8,000  Level Minneapolis Center
08:17PM 41.8736 -98.2656 256° West 142 163 8,000  Level Minneapolis Center
08:18PM 41.8644 -98.3175 257° West 142 163 8,000  Level Minneapolis Center
08:19PM 41.8511 -98.3894 256° West 143 165 8,000  Level Minneapolis Center
08:20PM 41.8419 -98.4408 257° West 142 163 8,000  Level Minneapolis Center
08:22PM 41.8325 -98.4928 256° West 143 165 8,000  Level Minneapolis Center
08:23PM 41.8228 -98.5567 258° West 145 167 8,000  Level Minneapolis Center
08:24PM 41.8128 -98.6092 256° West 146 168 8,000  Level Minneapolis Center
08:25PM 41.8008 -98.6717 256° West 145 167 8,000  Level Minneapolis Center
08:26PM 41.7922 -98.7247 258° West 145 167 8,000  Level Minneapolis Center
08:27PM 41.7806 -98.7867 256° West 145 167 8,000  Level Minneapolis Center
08:28PM 41.7711 -98.8386 256° West 144 166 8,000  Level Minneapolis Center
08:29PM 41.7625 -98.8900 257° West 143 165 8,000  Level Minneapolis Center
08:30PM 41.7533 -98.9403 256° West 141 162 8,000  Level Minneapolis Center
08:32PM 41.7400 -99.0103 256° West 139 160 8,000  Level Denver Center
08:33PM 41.7292 -99.0692 256° West 136 157 8,000  Level Denver Center
08:34PM 41.7200 -99.1186 256° West 137 158 8,000  Level Denver Center
08:34PM 41.7139 -99.1581 258° West 137 158 8,000  Level Minneapolis Center
08:35PM 41.7042 -99.2083 255° West 138 159 8,000  Level Minneapolis Center
08:37PM 41.6947 -99.2583 256° West 139 160 8,000  Level Minneapolis Center
08:38PM 41.6833 -99.3153 255° West 136 157 8,000  Level Minneapolis Center
08:39PM 41.6742 -99.3633 256° West 135 155 8,000  Level Minneapolis Center
08:40PM 41.6631 -99.4214 256° West 134 154 8,000  Level Denver Center
08:41PM 41.6539 -99.4694 256° West 133 153 8,100  Climbing Denver Center
08:42PM 41.6428 -99.5194 253° West 138 159 8,000  Descending Denver Center
08:43PM 41.6347 -99.5700 258° West 139 160 8,100  Climbing Denver Center
08:44PM 41.6258 -99.6189 256° West 137 158 8,000 -60 Descending Denver Center
08:45PM 41.6133 -99.6786 254° West 138 159 8,000  Level Denver Center
08:46PM 41.6050 -99.7269 257° West 136 157 8,000  Level Denver Center
08:47PM 41.5947 -99.7800 255° West 135 155 8,000  Level Denver Center
08:48PM 41.5864 -99.8272 257° West 136 157 8,100  Climbing Denver Center
08:49PM 41.5769 -99.8753 255° West 138 159 8,000 -60 Descending Denver Center
08:50PM 41.5661 -99.9317 256° West 140 161 8,000  Level Denver Center
08:51PM 41.5561 -99.9792 254° West 140 161 8,000  Level Denver Center
08:52PM 41.5461 -100.0367 257° West 142 163 8,000  Level Denver Center
08:53PM 41.5364 -100.0842 255° West 140 161 8,000  Level Denver Center
08:54PM 41.5225 -100.1394 251° West 141 162 8,000  Level Denver Center
08:55PM 41.5142 -100.1889 257° West 143 165 8,000  Level Denver Center
08:56PM 41.5036 -100.2464 256° West 143 165 8,000  Level Denver Center
08:57PM 41.4936 -100.2975 255° West 146 168 8,000  Level Denver Center
08:58PM 41.4825 -100.3544 255° West 143 165 8,000  Level Denver Center
08:59PM 41.4717 -100.4042 254° West 146 168 8,000  Level Denver Center
09:00PM 41.4614 -100.4628 257° West 146 168 8,000  Level Denver Center
09:02PM 41.4497 -100.5131 253° West 147 169 8,000  Level Denver Center
09:03PM 41.4389 -100.5733 257° West 150 173 8,100  Climbing Denver Center
09:04PM 41.4292 -100.6250 256° West 151 174 8,000 -60 Descending Denver Center
09:05PM 41.4181 -100.6856 256° West 151 174 8,000  Level Denver Center
09:06PM 41.4072 -100.7386 255° West 154 177 8,000  Level Denver Center
09:07PM 41.3953 -100.7994 255° West 153 176 8,000  Level Denver Center
09:08PM 41.3853 -100.8511 256° West 151 174 8,000  Level Denver Center
09:09PM 41.3728 -100.9103 254° West 150 173 8,000  Level Denver Center
09:10PM 41.3628 -100.9619 256° West 150 173 8,000  Level Denver Center
09:11PM 41.3517 -101.0142 254° West 153 176 8,000  Level Denver Center
09:12PM 41.3383 -101.0753 254° West 155 178 8,100  Climbing Denver Center
09:13PM 41.3278 -101.1286 255° West 156 180 8,000  Descending Denver Center
09:14PM 41.3139 -101.1903 253° West 156 180 8,100  Climbing Denver Center
09:15PM 41.3036 -101.2439 256° West 156 180 8,000 -60 Descending Denver Center
09:16PM 41.2908 -101.3069 255° West 157 181 8,000  Level Denver Center
09:17PM 41.2786 -101.3606 253° West 158 182 8,000  Level Denver Center
09:18PM 41.2661 -101.4239 255° West 158 182 8,000  Level Denver Center
09:19PM 41.2547 -101.4794 255° West 161 185 8,000  Level Denver Center
09:20PM 41.2417 -101.5428 255° West 161 185 8,000  Level Denver Center
09:21PM 41.2308 -101.5994 256° West 163 188 8,100  Climbing Denver Center
09:22PM 41.2169 -101.6647 254° West 164 189 8,000 -60 Descending Denver Center
09:23PM 41.2044 -101.7203 253° West 164 189 8,000  Level Denver Center
09:24PM 41.1911 -101.7839 254° West 162 186 8,000  Level Denver Center
09:25PM 41.1797 -101.8381 254° West 160 184 8,000  Level Denver Center
09:26PM 41.1669 -101.9006 255° West 159 183 8,000  Level Denver Center
09:27PM 41.1558 -101.9542 255° West 158 182 8,100  Climbing Denver Center
09:28PM 41.1414 -102.0156 253° West 157 181 8,000 -60 Descending Denver Center
09:29PM 41.1294 -102.0683 253° West 156 180 8,000  Level Denver Center
09:30PM 41.1186 -102.1214 255° West 156 180 8,000  Level Denver Center
09:31PM 41.1058 -102.1844 255° West 158 182 8,000  Level Denver Center
09:33PM 41.0942 -102.2369 254° West 156 180 8,000  Level Denver Center
09:34PM 41.0808 -102.3003 254° West 158 182 8,100  Climbing Denver Center
09:35PM 41.0683 -102.3539 253° West 159 183 8,100  Level Denver Center
09:36PM 41.0539 -102.4189 254° West 163 188 8,100  Level Denver Center
09:37PM 41.0422 -102.4744 254° West 163 188 8,100  Level Denver Center
09:38PM 41.0292 -102.5403 255° West 165 190 8,100  Level Denver Center
09:39PM 41.0169 -102.5956 254° West 164 189 8,100  Level Denver Center
09:40PM 41.0028 -102.6600 254° West 164 189 8,100  Level Denver Center
09:41PM 40.9906 -102.7156 254° West 164 189 8,100  Level Denver Center
09:42PM 40.9756 -102.7794 253° West 163 188 8,100  Level Denver Center
09:43PM 40.9644 -102.8317 254° West 160 184 8,100 -60 Level Denver Center
09:44PM 40.9503 -102.8947 253° West 158 182 8,000 -60 Descending Denver Center
09:45PM 40.9378 -102.9492 253° West 160 184 8,000  Level Denver Center
09:46PM 40.9261 -103.0053 255° West 163 188 8,100  Climbing Denver Center
09:47PM 40.9117 -103.0694 253° West 164 189 8,100  Level Denver Center
09:48PM 40.9000 -103.1253 255° West 163 188 8,100  Level Denver Center
09:49PM 40.8789 -103.2103 252° West 178 205 8,100  Level Denver Center
09:51PM 40.8647 -103.2669 252° West 165 190 8,100  Level Denver Center
09:52PM 40.8494 -103.3372 254° West 166 191 8,100  Level Denver Center
09:53PM 40.8358 -103.3978 253° West 169 194 8,100  Level Denver Center
09:54PM 40.8211 -103.4558 251° West 169 194 8,100  Level Denver Center
09:55PM 40.8083 -103.5172 255° West 171 197 8,100  Level Denver Center
09:56PM 40.7944 -103.5800 254° West 175 201 8,100  Level Denver Center
09:57PM 40.7808 -103.6431 254° West 177 204 8,100  Level Denver Center
09:58PM 40.7639 -103.7156 253° West 176 203 8,100  Level Denver Center
09:59PM 40.7494 -103.7778 253° West 176 203 8,100  Level Denver Center
10:00PM 40.7350 -103.8397 253° West 176 203 8,100  Level Denver Center
10:01PM 40.7203 -103.9022 253° West 178 205 8,100  Level Denver Center
10:02PM 40.7050 -103.9633 252° West 177 204 8,100  Level Denver Center
10:03PM 40.6911 -104.0267 254° West 178 205 8,100  Level Denver Center
10:04PM 40.6744 -104.0989 253° West 178 205 8,100  Level Denver Center
10:05PM 40.6597 -104.1592 252° West 175 201 8,100  Level Denver Center
10:06PM 40.6439 -104.2239 252° West 174 200 8,100  Level Denver Center
10:07PM 40.6297 -104.2836 253° West 170 196 8,100  Level Denver Center
10:08PM 40.6144 -104.3464 252° West 169 194 8,100  Level Denver Center
10:09PM 40.6003 -104.4039 252° West 166 191 8,100  Level Denver Center
10:10PM 40.5861 -104.4622 252° West 167 192 8,100  Level Denver Center
10:11PM 40.5703 -104.5219 251° West 162 186 8,100  Level Denver Center
10:12PM 40.5569 -104.5781 253° West 161 185 8,100  Level Denver Center
10:13PM 40.5431 -104.6381 253° West 161 185 8,100 -60 Level Denver Center
10:14PM 40.5294 -104.6919 252° West 157 181 8,000 -120 Descending Denver Center
10:15PM 40.5094 -104.7392 241° Southwest 158 182 7,900 -120 Descending Denver Center